Time;durP1;ratioP1;P1;durP2;ratioP2;P2;SDS_P1;SDS_P2;PMS_P1;PMS_P2;Temp;Humidity;BMP_temperature;BMP_pressure;BME280_temperature;BME280_humidity;BME280_pressure;Samples;Min_cycle;Max_cycle;Signal;HPM_P1;HPM_P2
2023/01/08 00:00:29;;;;;;;10.90;8.40;;;;;;;;;;4980738;28;20339;-72
2023/01/08 00:02:54;;;;;;;11.63;8.30;;;;;;;;;;4992558;28;20049;-72
2023/01/08 00:05:19;;;;;;;11.07;8.03;;;;;;;;;;4982721;28;20039;-72
2023/01/08 00:07:44;;;;;;;12.30;8.43;;;;;;;;;;4978932;28;20053;-72
2023/01/08 00:10:09;;;;;;;11.23;8.20;;;;;;;;;;4995512;28;20238;-72
2023/01/08 00:12:35;;;;;;;10.83;7.80;;;;;;;;;;4987290;28;20265;-72
2023/01/08 00:15:00;;;;;;;11.38;8.70;;;;;;;;;;4986128;28;20277;-72
2023/01/08 00:17:25;;;;;;;11.35;8.10;;;;;;;;;;4988076;28;20038;-72
2023/01/08 00:19:50;;;;;;;13.17;8.20;;;;;;;;;;4989998;28;20137;-71
2023/01/08 00:22:16;;;;;;;10.63;8.30;;;;;;;;;;4984611;28;20052;-72
2023/01/08 00:24:41;;;;;;;11.48;8.45;;;;;;;;;;4973149;28;20282;-72
2023/01/08 00:27:06;;;;;;;11.67;8.33;;;;;;;;;;4979269;28;20092;-72
2023/01/08 00:29:31;;;;;;;12.13;9.03;;;;;;;;;;4983150;28;20322;-71
2023/01/08 00:31:57;;;;;;;10.70;8.30;;;;;;;;;;4996489;28;20774;-72
2023/01/08 00:34:22;;;;;;;11.35;8.07;;;;;;;;;;4983242;28;20038;-72
2023/01/08 00:36:47;;;;;;;12.27;8.50;;;;;;;;;;4985580;28;20039;-72
2023/01/08 00:39:12;;;;;;;11.37;8.33;;;;;;;;;;4983840;28;20281;-70
2023/01/08 00:41:38;;;;;;;10.93;8.60;;;;;;;;;;4971670;28;20046;-69
2023/01/08 00:44:03;;;;;;;12.52;8.45;;;;;;;;;;4983474;28;20038;-71
2023/01/08 00:46:28;;;;;;;11.47;8.60;;;;;;;;;;4964081;28;20042;-71
2023/01/08 00:48:53;;;;;;;11.93;9.17;;;;;;;;;;4995843;28;20296;-71
2023/01/08 00:51:19;;;;;;;11.63;8.87;;;;;;;;;;4984219;28;20273;-71
2023/01/08 00:53:44;;;;;;;11.53;8.67;;;;;;;;;;4987188;28;20783;-71
2023/01/08 00:56:09;;;;;;;10.70;8.53;;;;;;;;;;4985568;28;20284;-71
2023/01/08 00:58:34;;;;;;;10.40;8.17;;;;;;;;;;4973368;28;20057;-71
2023/01/08 01:01:00;;;;;;;11.87;8.70;;;;;;;;;;4973242;28;20035;-71
2023/01/08 01:03:25;;;;;;;11.70;8.80;;;;;;;;;;4980146;28;20284;-71
2023/01/08 01:05:58;;;;;;;12.37;9.17;;;;;;;;;;4984490;28;20513;-71
2023/01/08 01:08:23;;;;;;;13.20;9.00;;;;;;;;;;4978209;28;20286;-73
2023/01/08 01:10:48;;;;;;;11.20;8.50;;;;;;;;;;4984187;28;20104;-71
2023/01/08 01:13:14;;;;;;;11.67;9.50;;;;;;;;;;4982085;28;20038;-71
2023/01/08 01:15:39;;;;;;;11.00;8.83;;;;;;;;;;4972677;28;20098;-71
2023/01/08 01:18:04;;;;;;;11.73;9.30;;;;;;;;;;4984398;28;20277;-71
2023/01/08 01:20:29;;;;;;;11.43;8.97;;;;;;;;;;5001674;28;20048;-71
2023/01/08 01:22:55;;;;;;;11.83;8.83;;;;;;;;;;4994059;28;20034;-71
2023/01/08 01:25:20;;;;;;;12.07;9.23;;;;;;;;;;4995102;28;20288;-71
2023/01/08 01:27:45;;;;;;;12.53;9.10;;;;;;;;;;4979812;28;20293;-72
2023/01/08 01:30:10;;;;;;;11.73;9.23;;;;;;;;;;4978811;28;20760;-71
2023/01/08 01:32:36;;;;;;;12.10;8.85;;;;;;;;;;4983210;28;20487;-71
2023/01/08 01:35:01;;;;;;;11.30;8.30;;;;;;;;;;4982350;28;20105;-71
2023/01/08 01:37:26;;;;;;;12.38;8.90;;;;;;;;;;4982790;28;20046;-71
2023/01/08 01:39:52;;;;;;;12.45;9.40;;;;;;;;;;4967271;28;20043;-73
2023/01/08 01:45:02;;;;;;;13.57;9.82;;;;;;;;;;4981362;28;20097;-72
2023/01/08 01:47:35;;;;;;;11.32;8.80;;;;;;;;;;4992105;28;20038;-72
2023/01/08 01:50:03;;;;;;;13.32;9.75;;;;;;;;;;4991642;28;20121;-71
2023/01/08 01:52:29;;;;;;;11.35;9.20;;;;;;;;;;5002607;28;20434;-72
2023/01/08 01:54:54;;;;;;;11.95;9.30;;;;;;;;;;4993742;28;20524;-72
2023/01/08 01:57:19;;;;;;;11.03;8.73;;;;;;;;;;4976251;28;20445;-71
2023/01/08 01:59:44;;;;;;;14.68;10.65;;;;;;;;;;4978654;28;20732;-72
2023/01/08 02:02:10;;;;;;;11.70;9.50;;;;;;;;;;4974757;28;20062;-72
2023/01/08 02:04:35;;;;;;;13.15;9.90;;;;;;;;;;4986604;28;20822;-71
2023/01/08 02:07:00;;;;;;;11.70;9.03;;;;;;;;;;4985911;28;20055;-72
2023/01/08 02:09:25;;;;;;;14.27;9.83;;;;;;;;;;4987520;28;20284;-72
2023/01/08 02:12:15;;;;;;;12.73;9.52;;;;;;;;;;4988454;28;20026;-71
2023/01/08 02:14:54;;;;;;;13.90;10.07;;;;;;;;;;4987657;28;20046;-72
2023/01/08 02:17:23;;;;;;;12.57;9.07;;;;;;;;;;5005980;28;20059;-71
2023/01/08 02:19:48;;;;;;;13.18;9.90;;;;;;;;;;5012005;28;20415;-72
2023/01/08 02:22:21;;;;;;;12.05;9.27;;;;;;;;;;4994486;28;20579;-71
2023/01/08 02:24:46;;;;;;;13.25;9.30;;;;;;;;;;4973279;28;20101;-72
2023/01/08 02:27:12;;;;;;;12.57;9.70;;;;;;;;;;5006582;28;20113;-72
2023/01/08 02:29:37;;;;;;;12.38;9.55;;;;;;;;;;4985948;28;20292;-72
2023/01/08 02:32:02;;;;;;;12.27;9.67;;;;;;;;;;4987120;28;20046;-72
2023/01/08 02:34:30;;;;;;;12.60;9.77;;;;;;;;;;4989193;28;20285;-72
2023/01/08 02:36:56;;;;;;;13.13;9.82;;;;;;;;;;4986391;28;20038;-72
2023/01/08 02:39:24;;;;;;;14.30;10.00;;;;;;;;;;4986243;28;20046;-72
2023/01/08 02:41:49;;;;;;;12.20;9.43;;;;;;;;;;4987109;28;20315;-72
2023/01/08 02:44:16;;;;;;;13.13;10.20;;;;;;;;;;4986697;28;20042;-71
2023/01/08 02:46:41;;;;;;;13.18;9.93;;;;;;;;;;4985147;28;20046;-72
2023/01/08 02:49:07;;;;;;;12.80;9.77;;;;;;;;;;4993028;28;20413;-72
2023/01/08 02:51:33;;;;;;;12.13;9.52;;;;;;;;;;4981030;28;20430;-72
2023/01/08 02:53:59;;;;;;;12.75;9.02;;;;;;;;;;5001975;28;20095;-71
2023/01/08 02:56:26;;;;;;;13.98;10.00;;;;;;;;;;5002248;28;20061;-72
2023/01/08 02:58:51;;;;;;;11.57;9.02;;;;;;;;;;5006172;28;20460;-72
2023/01/08 03:01:16;;;;;;;13.27;9.75;;;;;;;;;;5005167;28;20060;-71
2023/01/08 03:03:48;;;;;;;13.43;9.93;;;;;;;;;;4984607;28;20034;-72
2023/01/08 03:06:14;;;;;;;12.45;9.60;;;;;;;;;;5008394;28;20538;-71
2023/01/08 03:08:39;;;;;;;13.30;10.13;;;;;;;;;;5009051;28;20034;-71
2023/01/08 03:11:05;;;;;;;12.30;9.38;;;;;;;;;;4999603;28;20044;-72
2023/01/08 03:14:00;;;;;;;13.02;9.77;;;;;;;;;;4993798;28;20070;-72
2023/01/08 03:16:25;;;;;;;13.65;9.30;;;;;;;;;;4954228;28;20038;-72
2023/01/08 03:18:51;;;;;;;13.53;10.90;;;;;;;;;;4991945;28;20100;-72
2023/01/08 03:21:16;;;;;;;12.80;9.20;;;;;;;;;;5018004;28;20113;-72
2023/01/08 03:23:42;;;;;;;13.43;10.10;;;;;;;;;;5020358;28;20037;-72
2023/01/08 03:26:07;;;;;;;13.27;9.97;;;;;;;;;;4996565;28;20090;-72
2023/01/08 03:28:33;;;;;;;14.50;10.10;;;;;;;;;;5000617;28;20470;-72
2023/01/08 03:30:59;;;;;;;14.20;10.50;;;;;;;;;;5001625;28;20161;-72
2023/01/08 03:33:24;;;;;;;12.23;9.60;;;;;;;;;;5003648;28;20041;-72
2023/01/08 03:35:50;;;;;;;12.98;9.77;;;;;;;;;;4999540;28;20347;-72
2023/01/08 03:38:25;;;;;;;12.63;10.30;;;;;;;;;;4984242;28;20042;-72
2023/01/08 03:40:52;;;;;;;12.70;10.13;;;;;;;;;;4995591;28;20053;-72
2023/01/08 03:43:17;;;;;;;12.65;10.07;;;;;;;;;;5001228;28;20029;-71
2023/01/08 03:45:53;;;;;;;12.23;9.83;;;;;;;;;;5004143;28;20778;-72
2023/01/08 03:48:18;;;;;;;12.48;9.70;;;;;;;;;;4998131;28;20030;-71
2023/01/08 03:50:43;;;;;;;12.73;9.90;;;;;;;;;;4996766;28;20036;-71
2023/01/08 03:53:08;;;;;;;12.90;10.18;;;;;;;;;;5000087;28;20512;-71
2023/01/08 03:55:34;;;;;;;14.20;10.77;;;;;;;;;;4991882;28;20117;-71
2023/01/08 03:57:59;;;;;;;12.40;9.80;;;;;;;;;;5005960;28;20288;-71
2023/01/08 04:00:24;;;;;;;13.17;9.93;;;;;;;;;;5004610;28;20060;-71
2023/01/08 04:02:50;;;;;;;13.75;10.80;;;;;;;;;;4997922;28;20379;-71
2023/01/08 04:05:15;;;;;;;13.87;10.00;;;;;;;;;;5011876;28;20034;-71
2023/01/08 04:07:40;;;;;;;13.20;10.50;;;;;;;;;;5004665;28;20307;-71
2023/01/08 04:10:05;;;;;;;13.53;10.30;;;;;;;;;;5005146;28;20038;-72
2023/01/08 04:12:31;;;;;;;13.48;9.98;;;;;;;;;;5004564;28;20280;-72
2023/01/08 04:14:56;;;;;;;13.77;10.70;;;;;;;;;;5004261;28;20045;-72
2023/01/08 04:17:21;;;;;;;13.23;10.60;;;;;;;;;;4995234;28;20034;-72
2023/01/08 04:19:46;;;;;;;12.63;9.70;;;;;;;;;;5004821;28;20042;-71
2023/01/08 04:22:12;;;;;;;13.50;10.10;;;;;;;;;;5004518;28;20388;-72
2023/01/08 04:24:37;;;;;;;13.23;9.93;;;;;;;;;;4992381;28;20327;-71
2023/01/08 04:27:02;;;;;;;13.33;10.30;;;;;;;;;;5001022;28;20826;-71
2023/01/08 04:29:27;;;;;;;15.48;10.77;;;;;;;;;;5015169;28;21084;-70
2023/01/08 04:31:52;;;;;;;12.13;9.57;;;;;;;;;;5003893;28;20026;-71
2023/01/08 04:34:18;;;;;;;12.53;9.93;;;;;;;;;;5004723;28;20810;-72
2023/01/08 04:36:43;;;;;;;13.00;10.30;;;;;;;;;;4998274;28;20368;-72
2023/01/08 04:39:09;;;;;;;12.67;10.03;;;;;;;;;;5003460;28;20342;-72
2023/01/08 04:41:34;;;;;;;13.57;9.98;;;;;;;;;;5009377;28;20273;-72
2023/01/08 04:43:59;;;;;;;13.10;9.67;;;;;;;;;;5012653;28;20030;-71
2023/01/08 04:46:25;;;;;;;11.80;9.53;;;;;;;;;;5006630;28;20092;-72
2023/01/08 04:48:50;;;;;;;12.53;9.80;;;;;;;;;;5003886;28;20030;-71
2023/01/08 04:51:15;;;;;;;12.23;9.93;;;;;;;;;;5003483;28;20049;-71
2023/01/08 04:53:40;;;;;;;13.53;10.00;;;;;;;;;;5003348;28;20288;-72
2023/01/08 04:56:06;;;;;;;11.98;9.80;;;;;;;;;;5003207;28;20296;-72
2023/01/08 04:58:32;;;;;;;12.50;9.85;;;;;;;;;;5014903;28;20048;-71
2023/01/08 05:00:57;;;;;;;12.27;9.73;;;;;;;;;;5003709;28;20025;-71
2023/01/08 05:03:22;;;;;;;12.50;9.77;;;;;;;;;;4994368;28;20083;-71
2023/01/08 05:05:47;;;;;;;13.20;10.33;;;;;;;;;;5002690;28;20049;-71
2023/01/08 05:08:13;;;;;;;14.33;10.27;;;;;;;;;;5003436;28;20378;-71
2023/01/08 05:10:38;;;;;;;13.63;9.43;;;;;;;;;;5002279;28;20311;-72
2023/01/08 05:13:03;;;;;;;13.17;9.73;;;;;;;;;;5003452;28;20279;-71
2023/01/08 05:15:28;;;;;;;12.33;9.47;;;;;;;;;;5001640;28;20981;-71
2023/01/08 05:17:57;;;;;;;12.17;9.93;;;;;;;;;;5003907;28;20408;-71
2023/01/08 05:20:22;;;;;;;12.75;10.13;;;;;;;;;;5004356;28;20076;-71
2023/01/08 05:22:48;;;;;;;12.53;9.63;;;;;;;;;;5003502;28;20034;-71
2023/01/08 05:25:13;;;;;;;12.35;9.52;;;;;;;;;;4999160;28;20038;-72
2023/01/08 05:27:38;;;;;;;13.73;10.20;;;;;;;;;;4999549;28;20053;-72
2023/01/08 05:30:04;;;;;;;12.27;9.87;;;;;;;;;;4997848;28;20559;-71
2023/01/08 05:32:29;;;;;;;13.25;9.80;;;;;;;;;;4996943;28;20505;-74
2023/01/08 05:34:54;;;;;;;13.37;9.77;;;;;;;;;;4994457;28;20057;-73
2023/01/08 05:37:19;;;;;;;13.47;9.37;;;;;;;;;;4993730;28;20289;-74
2023/01/08 05:39:45;;;;;;;12.68;10.07;;;;;;;;;;4986190;28;20728;-73
2023/01/08 05:42:10;;;;;;;12.67;9.73;;;;;;;;;;5001637;28;20037;-73
2023/01/08 05:44:35;;;;;;;12.13;9.03;;;;;;;;;;4984175;28;20022;-74
2023/01/08 05:47:00;;;;;;;12.60;10.37;;;;;;;;;;4979359;28;20401;-73
2023/01/08 05:49:26;;;;;;;13.10;10.00;;;;;;;;;;4999079;28;20046;-72
2023/01/08 05:51:51;;;;;;;13.25;9.75;;;;;;;;;;4982163;28;20564;-70
2023/01/08 05:54:16;;;;;;;13.15;10.20;;;;;;;;;;4984528;28;20027;-70
2023/01/08 05:56:42;;;;;;;11.33;9.50;;;;;;;;;;4982661;28;20049;-70
2023/01/08 05:59:11;;;;;;;11.18;9.40;;;;;;;;;;4981172;28;20141;-70
2023/01/08 06:01:36;;;;;;;12.10;9.63;;;;;;;;;;4980563;28;20565;-71
2023/01/08 06:04:01;;;;;;;11.53;8.97;;;;;;;;;;4983011;28;20145;-71
2023/01/08 06:06:26;;;;;;;12.53;9.63;;;;;;;;;;4983267;28;20297;-72
2023/01/08 06:08:51;;;;;;;12.30;9.33;;;;;;;;;;4979516;28;20630;-70
2023/01/08 06:11:17;;;;;;;12.23;9.53;;;;;;;;;;4977867;28;20297;-71
2023/01/08 06:13:42;;;;;;;12.53;9.83;;;;;;;;;;4979960;28;20069;-71
2023/01/08 06:16:07;;;;;;;11.73;9.40;;;;;;;;;;4980208;28;20072;-71
2023/01/08 06:18:32;;;;;;;12.15;9.10;;;;;;;;;;4981200;28;20054;-71
2023/01/08 06:20:58;;;;;;;12.27;9.43;;;;;;;;;;4978555;28;20134;-71
2023/01/08 06:23:23;;;;;;;10.73;9.02;;;;;;;;;;4993838;28;20137;-70
2023/01/08 06:25:52;;;;;;;10.77;8.87;;;;;;;;;;4994694;28;20456;-70
2023/01/08 06:28:18;;;;;;;11.25;8.95;;;;;;;;;;5005275;28;20277;-71
2023/01/08 06:30:43;;;;;;;12.00;9.40;;;;;;;;;;5001726;28;20825;-70
2023/01/08 06:33:08;;;;;;;10.70;9.03;;;;;;;;;;4996172;28;20543;-70
2023/01/08 06:35:33;;;;;;;12.73;8.90;;;;;;;;;;5007525;28;20774;-72
2023/01/08 06:37:58;;;;;;;12.03;9.03;;;;;;;;;;4999822;28;20297;-71
2023/01/08 06:40:24;;;;;;;11.63;9.20;;;;;;;;;;5000426;28;20046;-71
2023/01/08 06:42:49;;;;;;;12.27;9.52;;;;;;;;;;5001012;28;20281;-72
2023/01/08 06:45:14;;;;;;;11.83;9.33;;;;;;;;;;4996853;28;20026;-74
2023/01/08 06:47:39;;;;;;;11.75;8.85;;;;;;;;;;5002198;28;20384;-73
2023/01/08 06:50:05;;;;;;;11.53;9.03;;;;;;;;;;5010510;28;20125;-73
2023/01/08 06:52:31;;;;;;;12.27;9.18;;;;;;;;;;5004273;28;20184;-73
2023/01/08 06:54:56;;;;;;;12.05;9.23;;;;;;;;;;5002905;28;20100;-73
2023/01/08 06:57:21;;;;;;;10.70;8.68;;;;;;;;;;5002692;28;20018;-73
2023/01/08 06:59:46;;;;;;;11.07;9.23;;;;;;;;;;4969892;28;20133;-73
2023/01/08 07:02:12;;;;;;;10.87;9.43;;;;;;;;;;4984012;28;20505;-72
2023/01/08 07:04:37;;;;;;;13.23;9.60;;;;;;;;;;4982669;28;20526;-72
2023/01/08 07:07:02;;;;;;;12.90;9.20;;;;;;;;;;4985486;28;20038;-73
2023/01/08 07:09:28;;;;;;;11.47;9.00;;;;;;;;;;4984752;28;20025;-73
2023/01/08 07:11:53;;;;;;;10.90;8.57;;;;;;;;;;4985099;28;20341;-72
2023/01/08 07:14:18;;;;;;;11.33;8.73;;;;;;;;;;4985313;28;20100;-72
2023/01/08 07:16:43;;;;;;;11.77;9.35;;;;;;;;;;4980594;28;20337;-72
2023/01/08 07:19:09;;;;;;;11.73;9.57;;;;;;;;;;4983908;28;20049;-72
2023/01/08 07:21:34;;;;;;;10.13;9.00;;;;;;;;;;4974940;28;20358;-72
2023/01/08 07:23:59;;;;;;;11.60;8.70;;;;;;;;;;4985124;28;20452;-73
2023/01/08 07:26:24;;;;;;;11.53;8.83;;;;;;;;;;4983329;28;20401;-72
2023/01/08 07:28:49;;;;;;;10.57;8.53;;;;;;;;;;4983025;28;20809;-73
2023/01/08 07:31:15;;;;;;;11.53;8.73;;;;;;;;;;4982614;28;20039;-73
2023/01/08 07:33:40;;;;;;;13.43;8.97;;;;;;;;;;4983786;28;20644;-73
2023/01/08 07:36:05;;;;;;;10.80;8.27;;;;;;;;;;4978838;28;20316;-74
2023/01/08 07:38:31;;;;;;;10.68;8.90;;;;;;;;;;4985649;28;20787;-72
2023/01/08 07:40:56;;;;;;;11.37;8.57;;;;;;;;;;4983792;28;20034;-75
2023/01/08 07:43:22;;;;;;;11.45;8.70;;;;;;;;;;4977067;28;20376;-75
2023/01/08 07:45:47;;;;;;;11.82;8.73;;;;;;;;;;4989078;28;20295;-73
2023/01/08 07:48:15;;;;;;;11.83;8.73;;;;;;;;;;4972361;28;20046;-71
2023/01/08 07:50:43;;;;;;;10.77;8.10;;;;;;;;;;4979260;28;20297;-73
2023/01/08 07:53:09;;;;;;;10.27;8.10;;;;;;;;;;4977937;28;20110;-73
2023/01/08 07:55:34;;;;;;;11.82;8.07;;;;;;;;;;4985112;28;20150;-72
2023/01/08 07:58:00;;;;;;;10.80;8.50;;;;;;;;;;4984796;28;20053;-72
2023/01/08 08:00:25;;;;;;;10.70;8.27;;;;;;;;;;4973574;28;20394;-74
2023/01/08 08:02:50;;;;;;;10.57;8.30;;;;;;;;;;4998152;28;20018;-73
2023/01/08 08:05:17;;;;;;;11.23;8.13;;;;;;;;;;4982964;28;20042;-72
2023/01/08 08:07:42;;;;;;;10.15;8.23;;;;;;;;;;4992549;28;20293;-74
2023/01/08 08:10:07;;;;;;;11.68;8.45;;;;;;;;;;5004930;28;20025;-71
2023/01/08 08:12:33;;;;;;;9.50;8.18;;;;;;;;;;5006175;28;20025;-73
2023/01/08 08:14:58;;;;;;;11.18;8.40;;;;;;;;;;5004661;28;20153;-72
2023/01/08 08:17:23;;;;;;;9.90;8.23;;;;;;;;;;5004222;28;20037;-75
2023/01/08 08:19:48;;;;;;;9.40;7.40;;;;;;;;;;5003877;28;20488;-72
2023/01/08 08:22:14;;;;;;;9.93;8.30;;;;;;;;;;5004023;28;20049;-73
2023/01/08 08:24:39;;;;;;;10.85;8.52;;;;;;;;;;4997984;28;20866;-71
2023/01/08 08:27:04;;;;;;;9.98;8.40;;;;;;;;;;5001849;28;20117;-71
2023/01/08 08:29:29;;;;;;;10.17;8.27;;;;;;;;;;5007372;28;20034;-71
2023/01/08 08:31:54;;;;;;;9.93;8.20;;;;;;;;;;5004937;28;20295;-70
2023/01/08 08:34:21;;;;;;;11.40;8.70;;;;;;;;;;5003508;28;20289;-72
2023/01/08 08:36:46;;;;;;;12.23;8.60;;;;;;;;;;5002112;28;99566;-70
2023/01/08 08:39:12;;;;;;;10.70;8.75;;;;;;;;;;5005280;28;20453;-71
2023/01/08 08:41:37;;;;;;;11.40;8.60;;;;;;;;;;5004562;28;20505;-73
2023/01/08 08:44:02;;;;;;;11.40;8.93;;;;;;;;;;5004182;28;20481;-71
2023/01/08 08:46:28;;;;;;;9.50;7.93;;;;;;;;;;5001995;28;20029;-70
2023/01/08 08:48:53;;;;;;;10.52;8.20;;;;;;;;;;5003152;28;20280;-70
2023/01/08 08:51:18;;;;;;;9.93;8.47;;;;;;;;;;5003790;28;20544;-70
2023/01/08 08:53:43;;;;;;;9.30;7.93;;;;;;;;;;4984644;28;20501;-74
2023/01/08 08:56:08;;;;;;;9.90;8.25;;;;;;;;;;5003522;28;20502;-71
2023/01/08 08:58:34;;;;;;;9.90;8.30;;;;;;;;;;5003442;28;20117;-71
2023/01/08 09:01:00;;;;;;;10.82;8.43;;;;;;;;;;5003252;28;20787;-72
2023/01/08 09:03:25;;;;;;;10.50;8.25;;;;;;;;;;5004727;28;20050;-72
2023/01/08 09:05:50;;;;;;;11.60;8.05;;;;;;;;;;5007019;28;20083;-70
2023/01/08 09:08:15;;;;;;;10.60;8.27;;;;;;;;;;5002456;28;20593;-72
2023/01/08 09:10:41;;;;;;;9.87;8.10;;;;;;;;;;5011718;28;20289;-73
2023/01/08 09:13:06;;;;;;;10.18;8.18;;;;;;;;;;4985414;28;20169;-72
2023/01/08 09:15:31;;;;;;;10.55;8.73;;;;;;;;;;5002334;28;20026;-73
2023/01/08 09:17:57;;;;;;;10.87;8.57;;;;;;;;;;4983685;28;20452;-72
2023/01/08 09:20:22;;;;;;;9.77;8.15;;;;;;;;;;4986217;28;20371;-73
2023/01/08 09:22:48;;;;;;;9.38;7.50;;;;;;;;;;5005662;28;20432;-74
2023/01/08 09:25:13;;;;;;;9.55;8.25;;;;;;;;;;5006351;28;20033;-74
2023/01/08 09:27:38;;;;;;;9.23;7.73;;;;;;;;;;4994742;28;20044;-74
2023/01/08 09:30:04;;;;;;;10.17;8.77;;;;;;;;;;4984169;28;20296;-73
2023/01/08 09:32:29;;;;;;;9.65;7.60;;;;;;;;;;4975240;28;20030;-71
2023/01/08 09:34:54;;;;;;;9.97;7.97;;;;;;;;;;4982081;28;20042;-72
2023/01/08 09:37:22;;;;;;;9.73;7.93;;;;;;;;;;4986689;28;20042;-72
2023/01/08 09:39:47;;;;;;;10.38;8.07;;;;;;;;;;5005688;28;20076;-71
2023/01/08 09:42:12;;;;;;;8.80;7.30;;;;;;;;;;4984558;28;20026;-71
2023/01/08 09:44:39;;;;;;;9.87;8.13;;;;;;;;;;4983572;28;20285;-73
2023/01/08 09:47:05;;;;;;;9.80;8.02;;;;;;;;;;4950864;28;20662;-75
2023/01/08 09:49:40;;;;;;;9.55;7.75;;;;;;;;;;4973482;28;21727;-73
2023/01/08 09:52:08;;;;;;;10.27;8.15;;;;;;;;;;4984518;28;20517;-73
2023/01/08 09:54:33;;;;;;;10.10;8.05;;;;;;;;;;4966762;28;20481;-72
2023/01/08 09:56:58;;;;;;;12.70;8.33;;;;;;;;;;4982306;28;20030;-72
2023/01/08 09:59:24;;;;;;;9.43;8.30;;;;;;;;;;4968124;28;20136;-72
2023/01/08 10:01:49;;;;;;;9.77;8.03;;;;;;;;;;4983751;28;21092;-71
2023/01/08 10:04:15;;;;;;;10.50;8.03;;;;;;;;;;4966032;28;20390;-72
2023/01/08 10:06:43;;;;;;;11.52;8.40;;;;;;;;;;4977040;28;20050;-73
2023/01/08 10:09:11;;;;;;;9.98;8.30;;;;;;;;;;4966307;28;20034;-73
2023/01/08 10:11:41;;;;;;;9.65;7.78;;;;;;;;;;4980208;28;20133;-73
2023/01/08 10:14:07;;;;;;;10.68;8.48;;;;;;;;;;4994653;28;20042;-74
2023/01/08 10:16:34;;;;;;;10.52;8.45;;;;;;;;;;4985599;28;20030;-74
2023/01/08 10:19:01;;;;;;;10.07;8.02;;;;;;;;;;4991171;28;20030;-74
2023/01/08 10:21:30;;;;;;;9.50;8.38;;;;;;;;;;5004008;28;20074;-73
2023/01/08 10:23:55;;;;;;;8.20;7.28;;;;;;;;;;4997371;28;20512;-73
2023/01/08 10:26:24;;;;;;;11.77;8.73;;;;;;;;;;5003071;28;20038;-73
2023/01/08 10:28:49;;;;;;;11.33;8.33;;;;;;;;;;4994545;28;20034;-72
2023/01/08 10:31:15;;;;;;;10.87;8.53;;;;;;;;;;5007954;28;20045;-72
2023/01/08 10:33:44;;;;;;;12.05;8.40;;;;;;;;;;4998969;28;20299;-76
2023/01/08 10:36:13;;;;;;;12.63;8.68;;;;;;;;;;5003215;28;20046;-74
2023/01/08 10:38:47;;;;;;;13.55;8.88;;;;;;;;;;5000797;28;20042;-71
2023/01/08 10:41:12;;;;;;;10.80;8.25;;;;;;;;;;4987380;28;20034;-72
2023/01/08 10:43:41;;;;;;;10.27;8.52;;;;;;;;;;5005995;28;20037;-73
2023/01/08 10:46:07;;;;;;;11.35;8.13;;;;;;;;;;5003819;28;20060;-72
2023/01/08 10:48:34;;;;;;;11.98;8.05;;;;;;;;;;5009106;28;20018;-74
2023/01/08 10:51:13;;;;;;;10.48;8.25;;;;;;;;;;4987323;28;20528;-73
2023/01/08 10:53:39;;;;;;;11.32;8.40;;;;;;;;;;4990387;28;20041;-71
2023/01/08 10:56:05;;;;;;;10.80;8.73;;;;;;;;;;5013639;28;20607;-74
2023/01/08 10:58:39;;;;;;;10.90;8.80;;;;;;;;;;5009998;28;20136;-73
2023/01/08 11:01:10;;;;;;;10.70;8.55;;;;;;;;;;5003314;28;20430;-74
2023/01/08 11:03:36;;;;;;;11.52;8.77;;;;;;;;;;5012020;28;20058;-73
2023/01/08 11:06:09;;;;;;;11.55;8.35;;;;;;;;;;5000927;28;20089;-78
2023/01/08 11:08:34;;;;;;;13.98;9.10;;;;;;;;;;5010016;28;20141;-72
2023/01/08 11:10:59;;;;;;;12.77;8.73;;;;;;;;;;5008093;28;20713;-72
2023/01/08 11:13:25;;;;;;;11.27;8.63;;;;;;;;;;5011136;28;20080;-72
2023/01/08 11:16:03;;;;;;;10.97;8.67;;;;;;;;;;4978154;28;20034;-74
2023/01/08 11:18:28;;;;;;;9.27;8.23;;;;;;;;;;5006829;28;20346;-71
2023/01/08 11:21:04;;;;;;;10.90;8.60;;;;;;;;;;5007648;28;20492;-72
2023/01/08 11:23:30;;;;;;;12.13;8.38;;;;;;;;;;5007925;28;20038;-71
2023/01/08 11:26:09;;;;;;;11.90;8.63;;;;;;;;;;5001452;28;20034;-77
2023/01/08 11:28:49;;;;;;;11.20;9.07;;;;;;;;;;5002263;28;20870;-74
2023/01/08 11:31:18;;;;;;;13.05;8.85;;;;;;;;;;5001124;28;20050;-72
2023/01/08 11:33:43;;;;;;;11.20;8.52;;;;;;;;;;5002884;28;20010;-73
2023/01/08 11:36:10;;;;;;;9.88;8.15;;;;;;;;;;5003378;28;20151;-73
2023/01/08 11:38:35;;;;;;;11.15;8.40;;;;;;;;;;4997107;28;20058;-73
2023/01/08 11:41:08;;;;;;;10.40;7.90;;;;;;;;;;5005157;28;20081;-73
2023/01/08 11:43:39;;;;;;;10.82;8.10;;;;;;;;;;4997997;28;20046;-72
2023/01/08 11:46:41;;;;;;;10.93;8.43;;;;;;;;;;5003693;28;20061;-72
2023/01/08 11:49:26;;;;;;;12.15;8.20;;;;;;;;;;4937822;28;20197;-72
2023/01/08 11:52:09;;;;;;;12.15;8.63;;;;;;;;;;4978138;28;20034;-72
2023/01/08 11:54:43;;;;;;;20.42;15.32;;;;;;;;;;4977981;28;20033;-74
2023/01/08 11:57:33;;;;;;;11.23;8.48;;;;;;;;;;4958909;28;20034;-73
2023/01/08 12:00:02;;;;;;;11.18;9.05;;;;;;;;;;4982989;28;20038;-72
2023/01/08 12:02:43;;;;;;;11.52;7.95;;;;;;;;;;4987516;28;20045;-72
2023/01/08 12:05:22;;;;;;;11.27;8.65;;;;;;;;;;4984705;28;20046;-71
2023/01/08 12:08:04;;;;;;;9.57;7.90;;;;;;;;;;4984165;28;20050;-72
2023/01/08 12:10:32;;;;;;;12.10;9.18;;;;;;;;;;4993064;28;20033;-70
2023/01/08 12:13:20;;;;;;;12.25;8.50;;;;;;;;;;4987441;28;20011;-72
2023/01/08 12:15:51;;;;;;;12.65;8.57;;;;;;;;;;4973853;28;20033;-71
2023/01/08 12:18:17;;;;;;;16.75;8.82;;;;;;;;;;4983609;28;20026;-71
2023/01/08 12:20:42;;;;;;;12.23;9.10;;;;;;;;;;4983303;28;20046;-71
2023/01/08 12:23:14;;;;;;;12.03;8.63;;;;;;;;;;4982834;28;20030;-71
2023/01/08 12:25:46;;;;;;;11.65;8.43;;;;;;;;;;4990310;28;20181;-73
2023/01/08 12:28:30;;;;;;;11.55;8.60;;;;;;;;;;4975290;28;20042;-72
2023/01/08 12:30:59;;;;;;;12.95;8.38;;;;;;;;;;4967865;28;20019;-73
2023/01/08 12:33:30;;;;;;;13.57;8.40;;;;;;;;;;4971951;28;20053;-72
2023/01/08 12:35:56;;;;;;;10.48;8.38;;;;;;;;;;4982889;28;20026;-72
2023/01/08 12:38:31;;;;;;;12.55;8.55;;;;;;;;;;4970037;28;20425;-72
2023/01/08 12:40:57;;;;;;;11.45;8.55;;;;;;;;;;4989180;28;20153;-72
2023/01/08 12:43:27;;;;;;;12.20;8.40;;;;;;;;;;4991834;28;20030;-71
2023/01/08 12:45:53;;;;;;;11.40;8.25;;;;;;;;;;5001067;28;20029;-71
2023/01/08 12:48:19;;;;;;;11.63;8.23;;;;;;;;;;5012947;28;20018;-72
2023/01/08 12:51:03;;;;;;;12.40;8.35;;;;;;;;;;4985232;28;20068;-72
2023/01/08 12:53:47;;;;;;;11.60;8.55;;;;;;;;;;4998932;28;20026;-71
2023/01/08 12:56:19;;;;;;;10.95;8.38;;;;;;;;;;5003188;28;20034;-73
2023/01/08 12:59:03;;;;;;;10.98;8.38;;;;;;;;;;5002695;28;20551;-72
2023/01/08 13:01:28;;;;;;;11.15;8.23;;;;;;;;;;4991893;28;20031;-72
2023/01/08 13:03:53;;;;;;;11.53;8.33;;;;;;;;;;4985721;28;20033;-72
2023/01/08 13:06:18;;;;;;;9.87;8.20;;;;;;;;;;4998036;28;20057;-72
2023/01/08 13:08:45;;;;;;;11.03;8.03;;;;;;;;;;5003324;28;20300;-72
2023/01/08 13:11:11;;;;;;;10.77;8.65;;;;;;;;;;4995472;28;20074;-72
2023/01/08 13:13:38;;;;;;;11.40;8.63;;;;;;;;;;4996479;28;20073;-72
2023/01/08 13:16:24;;;;;;;11.35;8.90;;;;;;;;;;4995533;28;20030;-72
2023/01/08 13:18:53;;;;;;;9.68;8.20;;;;;;;;;;4999685;28;20029;-72
2023/01/08 13:21:18;;;;;;;9.48;7.72;;;;;;;;;;4993498;28;20105;-72
2023/01/08 13:23:43;;;;;;;9.60;7.93;;;;;;;;;;4997373;28;20148;-71
2023/01/08 13:26:08;;;;;;;9.67;7.97;;;;;;;;;;5002292;28;20133;-71
2023/01/08 13:28:33;;;;;;;11.67;8.13;;;;;;;;;;5001985;28;20524;-71
2023/01/08 13:31:08;;;;;;;9.57;7.93;;;;;;;;;;5000466;28;20533;-72
2023/01/08 13:33:33;;;;;;;13.90;8.93;;;;;;;;;;5001799;28;20021;-72
2023/01/08 13:36:08;;;;;;;11.33;8.10;;;;;;;;;;4975189;28;20057;-72
2023/01/08 13:38:33;;;;;;;24.95;10.00;;;;;;;;;;4980144;28;20065;-73
2023/01/08 13:40:59;;;;;;;15.63;8.50;;;;;;;;;;4979213;28;20501;-72
2023/01/08 13:43:40;;;;;;;13.32;8.10;;;;;;;;;;4982247;28;20290;-70
2023/01/08 13:46:15;;;;;;;12.32;8.27;;;;;;;;;;4982292;28;20046;-73
2023/01/08 13:48:47;;;;;;;13.07;8.52;;;;;;;;;;4979268;28;20089;-74
2023/01/08 13:51:24;;;;;;;14.57;8.57;;;;;;;;;;5008542;28;20095;-74
2023/01/08 13:53:49;;;;;;;12.65;8.43;;;;;;;;;;5002750;28;20199;-72
2023/01/08 13:56:14;;;;;;;15.10;8.70;;;;;;;;;;4993011;28;20042;-74
2023/01/08 13:58:50;;;;;;;11.57;8.43;;;;;;;;;;5005991;28;20858;-72
2023/01/08 14:01:15;;;;;;;13.77;8.52;;;;;;;;;;5009938;28;20321;-74
2023/01/08 14:03:44;;;;;;;12.13;8.27;;;;;;;;;;5008402;28;20802;-73
2023/01/08 14:06:13;;;;;;;14.15;8.57;;;;;;;;;;4993044;28;20311;-73
2023/01/08 14:08:47;;;;;;;11.65;8.65;;;;;;;;;;5007332;28;20030;-77
2023/01/08 14:11:13;;;;;;;10.63;8.18;;;;;;;;;;4991782;28;20038;-74
2023/01/08 14:13:38;;;;;;;12.23;8.60;;;;;;;;;;5005951;28;20148;-75
2023/01/08 14:16:04;;;;;;;11.67;8.20;;;;;;;;;;5006380;28;20347;-77
2023/01/08 14:18:29;;;;;;;12.55;8.38;;;;;;;;;;5011332;28;20483;-79
2023/01/08 14:20:54;;;;;;;12.93;8.80;;;;;;;;;;4989087;28;20050;-78
2023/01/08 14:23:21;;;;;;;10.60;8.23;;;;;;;;;;5005919;28;20168;-73
2023/01/08 14:25:47;;;;;;;12.60;8.88;;;;;;;;;;5010742;28;20289;-76
2023/01/08 14:28:16;;;;;;;12.02;8.48;;;;;;;;;;5005477;28;20150;-76
2023/01/08 14:30:51;;;;;;;10.73;8.07;;;;;;;;;;5006505;28;20345;-74
2023/01/08 14:33:18;;;;;;;11.73;8.30;;;;;;;;;;5008343;28;20138;-74